Time;durP1;ratioP1;P1;durP2;ratioP2;P2;SDS_P1;SDS_P2;PMS_P1;PMS_P2;Temp;Humidity;BMP_temperature;BMP_pressure;BME280_temperature;BME280_humidity;BME280_pressure;Samples;Min_cycle;Max_cycle;Signal;HPM_P1;HPM_P2
2022/04/21 00:00:05;;;;;;;1.80;1.38;;;;;;;26.93;25.29;96040.69;4926373;28;20039;-34
2022/04/21 00:02:31;;;;;;;3.60;0.98;;;;;;;26.93;25.24;96024.91;4922560;28;20031;-34
2022/04/21 00:04:57;;;;;;;2.13;1.23;;;;;;;26.92;25.40;96012.72;4926834;28;20151;-32
2022/04/21 00:07:23;;;;;;;5.10;1.15;;;;;;;26.92;25.53;96017.97;4926203;28;20035;-31
2022/04/21 00:09:48;;;;;;;3.88;1.55;;;;;;;26.92;25.39;96012.72;4924915;28;20086;-31
2022/04/21 00:12:14;;;;;;;1.83;1.38;;;;;;;26.93;25.39;96009.13;4922408;28;20035;-32
2022/04/21 00:14:40;;;;;;;1.58;1.10;;;;;;;26.92;25.33;96002.22;4943025;28;20043;-31
2022/04/21 00:17:08;;;;;;;2.55;1.25;;;;;;;26.91;25.28;96001.34;4925722;28;20599;-31
2022/04/21 00:19:33;;;;;;;2.83;1.50;;;;;;;26.92;25.32;96007.47;4926052;28;20074;-31
2022/04/21 00:24:43;;;;;;;3.55;1.45;;;;;;;26.92;25.40;95999.59;4884544;28;20097;-32
2022/04/21 00:27:08;;;;;;;2.47;1.20;;;;;;;26.91;25.46;95995.25;4884495;28;20040;-33
2022/04/21 00:29:35;;;;;;;3.05;1.52;;;;;;;26.91;25.30;96000.50;4886386;28;22350;-33
2022/04/21 00:32:00;;;;;;;2.53;1.30;;;;;;;26.91;25.39;96001.34;4887973;28;20125;-29
2022/04/21 00:34:26;;;;;;;2.00;1.23;;;;;;;26.91;25.54;95995.25;4887881;28;20642;-32
2022/04/21 00:36:51;;;;;;;3.03;1.52;;;;;;;26.91;25.38;95990.00;4886280;28;20482;-31
2022/04/21 00:39:16;;;;;;;3.00;1.40;;;;;;;26.91;25.47;95996.09;4885578;28;20083;-33
2022/04/21 00:41:42;;;;;;;1.65;1.10;;;;;;;26.90;25.51;95988.31;4888194;28;20035;-32
2022/04/21 00:44:07;;;;;;;3.03;1.40;;;;;;;26.91;25.52;95992.63;4886017;28;20023;-34
2022/04/21 00:46:33;;;;;;;3.13;0.90;;;;;;;26.91;25.52;95988.22;4886662;28;20487;-32
2022/04/21 00:48:58;;;;;;;1.55;1.15;;;;;;;26.91;25.45;95987.34;4898840;28;20545;-32
2022/04/21 00:51:23;;;;;;;1.77;1.20;;;;;;;26.91;25.45;95979.47;4887511;28;20032;-32
2022/04/21 00:53:49;;;;;;;1.83;1.30;;;;;;;26.91;25.44;95982.09;4882772;28;20070;-36
2022/04/21 00:56:14;;;;;;;2.35;1.20;;;;;;;26.90;25.43;95980.44;4898120;28;20075;-35
2022/04/21 00:58:41;;;;;;;2.90;1.15;;;;;;;26.91;25.47;95982.97;4882227;28;20035;-36
2022/04/21 01:02:46;;;;;;;2.58;1.30;;;;;;;26.90;25.52;95988.31;4883629;28;20039;-31
2022/04/21 01:03:53;;;;;;;3.22;1.20;;;;;;;26.91;25.46;95997.88;4886159;28;20116;-33
2022/04/21 01:06:18;;;;;;;3.42;1.10;;;;;;;26.90;25.55;95988.31;4895399;28;20649;-34
2022/04/21 01:08:44;;;;;;;2.40;1.15;;;;;;;26.91;25.50;95995.25;4890194;28;20039;-37
2022/04/21 01:11:10;;;;;;;3.03;1.30;;;;;;;26.91;25.46;95987.34;4883590;28;20317;-34
2022/04/21 01:13:35;;;;;;;1.52;0.98;;;;;;;26.90;25.47;95983.06;4889177;28;20628;-33
2022/04/21 01:16:01;;;;;;;1.63;1.00;;;;;;;26.90;25.46;95983.06;4880163;28;20038;-34
2022/04/21 01:18:27;;;;;;;1.30;0.95;;;;;;;26.90;25.50;95983.06;4882693;28;20055;-34
2022/04/21 01:20:53;;;;;;;2.75;0.98;;;;;;;26.89;25.65;95982.25;4888540;28;20194;-34
2022/04/21 01:23:18;;;;;;;5.32;1.30;;;;;;;26.90;25.54;95983.06;4911218;28;20039;-31
2022/04/21 01:25:43;;;;;;;3.45;1.42;;;;;;;26.89;25.58;95971.72;4924218;28;20940;-31
2022/04/21 01:28:10;;;;;;;2.13;1.10;;;;;;;26.90;25.68;95977.81;4925294;28;20024;-32
2022/04/21 01:30:35;;;;;;;4.25;1.42;;;;;;;26.88;25.56;95968.25;4924828;28;20024;-32
2022/04/21 01:33:00;;;;;;;1.50;1.10;;;;;;;26.89;25.53;95966.47;4922044;28;20489;-32
2022/04/21 01:35:26;;;;;;;2.75;1.50;;;;;;;26.89;25.65;95976.97;4928559;28;20031;-32
2022/04/21 01:43:19;;;;;;;1.80;0.90;;;;;;;26.88;25.64;95965.63;4925134;28;20112;-31
2022/04/21 01:45:44;;;;;;;1.90;1.00;;;;;;;26.87;25.56;95966.56;4924510;28;20023;-34
2022/04/21 01:48:10;;;;;;;1.38;1.00;;;;;;;26.87;25.69;95968.34;4923115;28;20027;-34
2022/04/21 01:50:35;;;;;;;3.22;0.90;;;;;;;26.86;25.65;95966.66;4923127;28;20831;-31
2022/04/21 01:53:00;;;;;;;1.33;0.95;;;;;;;26.86;25.73;95967.50;4939121;28;20090;-34
2022/04/21 01:55:26;;;;;;;2.47;0.98;;;;;;;26.86;25.68;95966.66;4926253;28;20031;-32
2022/04/21 01:57:52;;;;;;;3.10;1.35;;;;;;;26.86;25.71;95972.75;4928955;28;20035;-32
2022/04/21 02:00:18;;;;;;;1.52;1.02;;;;;;;26.86;25.56;95966.66;4923112;28;20569;-31
2022/04/21 02:02:43;;;;;;;3.30;1.15;;;;;;;26.85;25.65;95963.19;4923110;28;20035;-38
2022/04/21 02:05:08;;;;;;;3.75;1.25;;;;;;;26.86;25.62;95964.03;4927500;28;20035;-33
2022/04/21 02:07:34;;;;;;;3.85;1.00;;;;;;;26.85;25.56;95963.19;4920156;28;21013;-33
2022/04/21 02:09:59;;;;;;;1.65;1.10;;;;;;;26.85;25.65;95947.41;4920575;28;20065;-37
2022/04/21 02:12:25;;;;;;;2.88;1.00;;;;;;;26.86;25.67;95958.78;4929805;28;20038;-34
2022/04/21 02:14:54;;;;;;;1.58;1.00;;;;;;;26.85;25.72;95955.31;4929480;28;20046;-33
2022/04/21 02:17:19;;;;;;;1.63;0.80;;;;;;;26.84;25.67;95948.38;4929857;28;20114;-32
2022/04/21 02:19:46;;;;;;;1.40;0.90;;;;;;;26.84;25.56;95958.88;4941412;28;20039;-31
2022/04/21 02:22:12;;;;;;;1.42;1.05;;;;;;;26.84;25.71;95953.63;4926892;28;20028;-32
2022/04/21 02:24:37;;;;;;;2.15;1.17;;;;;;;26.85;25.63;95946.59;4926469;28;20114;-31
2022/04/21 02:27:03;;;;;;;1.27;0.95;;;;;;;26.85;25.66;95957.13;4930692;28;20043;-33
2022/04/21 02:29:28;;;;;;;2.33;1.13;;;;;;;26.84;25.61;95956.25;4927431;28;20565;-35
2022/04/21 02:31:54;;;;;;;2.30;0.90;;;;;;;26.84;25.61;95956.25;4927252;28;20068;-32
2022/04/21 02:34:19;;;;;;;1.90;1.00;;;;;;;26.84;25.63;95948.38;4925538;28;20055;-31
2022/04/21 02:36:45;;;;;;;1.45;1.00;;;;;;;26.84;25.77;95951.00;4925916;28;20035;-33
2022/04/21 02:39:10;;;;;;;1.52;0.90;;;;;;;26.84;25.82;95951.00;4925084;28;20035;-32
2022/04/21 02:41:35;;;;;;;3.00;0.90;;;;;;;26.83;25.72;95949.34;4925432;28;20105;-33
2022/04/21 02:44:01;;;;;;;0.93;0.73;;;;;;;26.84;25.83;95947.53;4924368;28;20105;-33
2022/04/21 02:46:30;;;;;;;1.45;0.88;;;;;;;26.84;25.83;95947.53;4924323;28;20027;-32
2022/04/21 02:48:56;;;;;;;1.25;1.02;;;;;;;26.84;25.85;95948.38;4927158;28;20039;-36
2022/04/21 02:51:21;;;;;;;1.00;0.90;;;;;;;26.84;25.85;95948.38;4935508;28;20035;-33
2022/04/21 02:59:15;;;;;;;1.45;1.10;;;;;;;26.82;25.64;95924.00;4924301;28;20591;-31
2022/04/21 03:01:40;;;;;;;1.48;1.00;;;;;;;26.82;25.61;95923.16;4923677;28;20027;-32
2022/04/21 03:04:05;;;;;;;0.93;0.80;;;;;;;26.82;25.72;95924.00;4924638;28;20034;-32
2022/04/21 03:06:31;;;;;;;1.67;1.00;;;;;;;26.81;25.95;95927.56;4919134;28;20035;-35
2022/04/21 03:08:56;;;;;;;1.88;1.00;;;;;;;26.81;25.92;95922.28;4917180;28;21111;-31
2022/04/21 03:11:22;;;;;;;1.40;0.85;;;;;;;26.81;25.65;95929.38;4919205;28;20024;-34
2022/04/21 03:13:47;;;;;;;2.30;0.95;;;;;;;26.79;25.71;95918.09;4920613;28;20066;-31
2022/04/21 03:16:12;;;;;;;1.63;0.70;;;;;;;26.79;25.71;95918.09;4927095;28;20054;-31
2022/04/21 03:18:38;;;;;;;2.05;1.35;;;;;;;26.80;25.78;95925.03;4920413;28;20043;-34
2022/04/21 03:26:31;;;;;;;1.48;0.90;;;;;;;26.79;25.72;95924.22;4922902;28;20070;-31
2022/04/21 03:28:57;;;;;;;1.02;0.80;;;;;;;26.80;25.79;95931.13;4921372;28;20519;-32
2022/04/21 03:31:23;;;;;;;2.20;0.80;;;;;;;26.80;25.79;95931.13;4931959;28;20039;-32
2022/04/21 03:33:50;;;;;;;1.23;0.77;;;;;;;26.80;25.79;95931.13;4926911;28;20324;-31
2022/04/21 03:36:16;;;;;;;1.35;0.90;;;;;;;26.78;25.90;95919.06;4923369;28;20034;-31
2022/04/21 03:38:41;;;;;;;1.52;0.95;;;;;;;26.78;25.90;95919.06;4920115;28;20030;-38
2022/04/21 03:41:06;;;;;;;1.48;0.73;;;;;;;26.79;25.86;95911.06;4929163;28;20902;-32
2022/04/21 03:43:32;;;;;;;1.35;0.77;;;;;;;26.79;25.73;95918.09;4926153;28;20042;-31
2022/04/21 03:45:57;;;;;;;1.00;0.70;;;;;;;26.78;25.89;95914.66;4925107;28;20070;-31
2022/04/21 03:48:23;;;;;;;1.92;0.70;;;;;;;26.77;25.87;95923.47;4927879;28;20042;-33
2022/04/21 03:50:48;;;;;;;2.45;0.80;;;;;;;26.77;25.82;95918.19;4926812;28;20386;-32
2022/04/21 03:53:14;;;;;;;2.33;0.70;;;;;;;26.78;25.64;95919.06;4924245;28;20290;-34
2022/04/21 03:55:39;;;;;;;1.33;0.90;;;;;;;26.77;25.74;95915.56;4921514;28;20019;-31
2022/04/21 03:58:05;;;;;;;1.80;0.77;;;;;;;26.78;25.83;95912.03;4929314;28;20024;-33
2022/04/21 04:00:30;;;;;;;1.17;0.63;;;;;;;26.78;25.83;95912.03;4925260;28;20030;-31
2022/04/21 04:02:56;;;;;;;0.60;0.60;;;;;;;26.76;25.84;95908.66;4925284;28;20058;-41
2022/04/21 04:05:21;;;;;;;0.70;0.70;;;;;;;26.77;25.85;95915.56;4928728;28;20582;-31
2022/04/21 04:13:14;;;;;;;1.05;0.82;;;;;;;26.77;25.71;95915.56;4929783;28;20710;-30
2022/04/21 04:15:40;;;;;;;3.33;1.02;;;;;;;26.77;25.71;95915.56;4928362;28;20034;-33
2022/04/21 04:18:05;;;;;;;1.10;0.60;;;;;;;26.77;25.71;95915.56;4924792;28;20035;-37
2022/04/21 04:20:31;;;;;;;1.52;0.77;;;;;;;26.77;25.71;95915.56;4924594;28;20023;-32
2022/04/21 04:22:56;;;;;;;0.82;0.60;;;;;;;26.77;25.71;95915.56;4929810;28;20031;-31
2022/04/21 04:25:21;;;;;;;2.72;0.75;;;;;;;26.75;25.95;95925.38;4930508;28;20046;-35
2022/04/21 04:27:47;;;;;;;0.73;0.70;;;;;;;26.75;25.95;95925.38;4927139;28;20031;-33
2022/04/21 04:30:13;;;;;;;1.85;0.70;;;;;;;26.73;25.86;95927.25;4930312;28;20035;-36
2022/04/21 04:32:38;;;;;;;1.58;0.90;;;;;;;26.73;25.86;95927.25;4930675;28;21054;-33
2022/04/21 04:35:04;;;;;;;1.05;0.55;;;;;;;26.73;25.86;95927.25;4935073;28;20083;-37
2022/04/21 04:37:29;;;;;;;1.05;0.70;;;;;;;26.73;25.86;95927.25;4925787;28;20038;-32
2022/04/21 04:39:55;;;;;;;1.10;0.90;;;;;;;26.74;25.92;95926.34;4929181;28;20029;-31
2022/04/21 04:42:22;;;;;;;1.45;0.70;;;;;;;26.74;25.92;95926.34;4930186;28;20691;-37
2022/04/21 04:44:49;;;;;;;3.95;0.88;;;;;;;26.75;26.03;95917.50;4927706;28;20047;-33
2022/04/21 04:47:14;;;;;;;1.13;0.80;;;;;;;26.74;25.93;95918.44;4930499;28;20041;-38
2022/04/21 04:49:40;;;;;;;1.42;0.93;;;;;;;26.73;25.85;95919.38;4927608;28;20976;-32
2022/04/21 04:52:06;;;;;;;3.15;1.00;;;;;;;26.73;26.16;95914.97;4942797;28;20141;-33
2022/04/21 04:54:31;;;;;;;2.92;1.08;;;;;;;26.73;25.96;95919.38;4932298;28;20657;-30
2022/04/21 04:56:57;;;;;;;1.40;0.68;;;;;;;26.73;25.95;95914.97;4943778;28;20030;-34
2022/04/21 04:59:22;;;;;;;2.00;0.80;;;;;;;26.73;25.79;95919.38;4931050;28;20361;-30
2022/04/21 05:01:48;;;;;;;2.67;0.80;;;;;;;26.74;25.95;95931.59;4930528;28;20086;-33
2022/04/21 05:04:17;;;;;;;1.10;0.70;;;;;;;26.72;26.06;95918.56;4929074;28;20053;-33
2022/04/21 05:06:44;;;;;;;1.35;1.00;;;;;;;26.73;25.94;95919.38;4927499;28;20031;-31
2022/04/21 05:09:11;;;;;;;2.17;1.10;;;;;;;26.72;25.78;95915.06;4929639;28;20111;-32
2022/04/21 05:11:37;;;;;;;2.53;0.90;;;;;;;26.72;25.97;95917.69;4927514;28;20038;-32
2022/04/21 05:14:02;;;;;;;0.95;0.73;;;;;;;26.71;25.88;95910.78;4930480;28;20031;-31
2022/04/21 05:16:28;;;;;;;1.30;0.88;;;;;;;26.72;25.94;95912.44;4942062;28;20117;-32
2022/04/21 05:18:53;;;;;;;0.90;0.70;;;;;;;26.72;25.88;95920.31;4925840;28;20651;-33
2022/04/21 05:21:19;;;;;;;2.10;0.98;;;;;;;26.72;25.96;95922.94;4929359;28;20050;-31
2022/04/21 05:23:47;;;;;;;6.88;1.05;;;;;;;26.72;25.96;95922.94;4925119;28;20082;-37
2022/04/21 05:26:13;;;;;;;4.38;1.38;;;;;;;26.72;25.76;95922.94;4925358;28;20158;-36
2022/04/21 05:28:39;;;;;;;7.30;1.35;;;;;;;26.72;25.76;95922.94;4922480;28;20070;-37
2022/04/21 05:31:04;;;;;;;1.95;0.90;;;;;;;26.71;25.94;95921.28;4929003;28;20024;-34
2022/04/21 05:33:30;;;;;;;1.40;0.90;;;;;;;26.71;25.82;95921.28;4922855;28;20032;-34
2022/04/21 05:35:57;;;;;;;3.13;0.90;;;;;;;26.71;25.82;95921.28;4925297;28;20031;-34
2022/04/21 05:38:23;;;;;;;2.13;0.98;;;;;;;26.71;25.60;95911.63;4923784;28;20109;-34
2022/04/21 05:40:49;;;;;;;1.63;0.90;;;;;;;26.71;25.87;95905.50;4924976;28;20039;-32
2022/04/21 05:43:18;;;;;;;2.05;0.85;;;;;;;26.70;25.88;95909.91;4926328;28;20166;-33
2022/04/21 05:45:48;;;;;;;1.60;1.00;;;;;;;26.71;25.92;95910.78;4923634;28;20058;-31
2022/04/21 05:48:14;;;;;;;1.13;0.60;;;;;;;26.71;25.90;95910.78;4923926;28;20038;-39
2022/04/21 05:50:49;;;;;;;2.15;0.90;;;;;;;26.70;25.94;95909.91;4924845;28;20027;-33
2022/04/21 05:53:20;;;;;;;1.58;1.00;;;;;;;26.71;25.89;95902.88;4938540;28;20748;-30
2022/04/21 05:55:45;;;;;;;2.90;0.90;;;;;;;26.70;25.95;95895.97;4920324;28;20039;-33
2022/04/21 05:58:11;;;;;;;2.35;0.70;;;;;;;26.70;26.06;95893.31;4929093;28;20028;-34
2022/04/21 06:00:36;;;;;;;2.58;0.80;;;;;;;26.70;26.06;95893.31;4926935;28;20034;-30
2022/04/21 06:03:02;;;;;;;1.15;0.80;;;;;;;26.71;25.92;95900.25;4927996;28;20039;-31
2022/04/21 06:05:27;;;;;;;2.50;0.65;;;;;;;26.69;25.98;95897.72;4919931;28;20031;-33
2022/04/21 06:07:53;;;;;;;2.53;1.00;;;;;;;26.71;25.87;95892.38;4926566;28;20071;-32
2022/04/21 06:10:18;;;;;;;2.25;0.68;;;;;;;26.71;25.87;95892.38;4925849;28;20024;-33
2022/04/21 06:12:44;;;;;;;4.82;0.98;;;;;;;26.70;25.96;95882.81;4919337;28;20506;-37
2022/04/21 06:15:09;;;;;;;1.90;0.88;;;;;;;26.70;25.83;95886.25;4917317;28;20712;-30
2022/04/21 06:17:34;;;;;;;2.00;1.02;;;;;;;26.70;26.01;95888.06;4919256;28;20442;-31
2022/04/21 06:20:00;;;;;;;13.88;1.42;;;;;;;26.71;25.76;95884.50;4912358;28;20525;-32
2022/04/21 06:22:25;;;;;;;4.05;1.52;;;;;;;26.70;25.87;95882.81;4922388;28;20031;-30
2022/04/21 06:24:51;;;;;;;12.05;1.55;;;;;;;26.70;25.87;95888.06;4919854;28;20035;-31
2022/04/21 06:27:16;;;;;;;3.20;1.30;;;;;;;26.69;25.80;95883.78;4917852;28;20038;-36
2022/04/21 06:29:41;;;;;;;9.57;1.60;;;;;;;26.69;25.96;95886.41;4918063;28;20042;-31
2022/04/21 06:32:07;;;;;;;10.35;1.58;;;;;;;26.69;25.91;95886.41;4921357;28;20096;-32
2022/04/21 06:34:33;;;;;;;8.27;1.65;;;;;;;26.69;25.91;95886.41;4919488;28;20067;-30
2022/04/21 06:37:01;;;;;;;6.63;1.40;;;;;;;26.70;25.95;95893.31;4913194;28;20035;-32
2022/04/21 06:39:26;;;;;;;3.80;1.17;;;;;;;26.70;25.95;95893.31;4917422;28;20036;-31
2022/04/21 06:41:52;;;;;;;1.55;1.05;;;;;;;26.70;25.95;95893.31;4919140;28;20075;-32
2022/04/21 06:49:45;;;;;;;4.25;1.08;;;;;;;26.72;25.99;95901.94;4920750;28;20663;-31
2022/04/21 06:52:11;;;;;;;2.95;1.00;;;;;;;26.72;25.99;95901.94;4917630;28;20043;-32
2022/04/21 06:54:36;;;;;;;2.70;1.30;;;;;;;26.72;25.99;95901.94;4918452;28;20039;-33
2022/04/21 06:57:02;;;;;;;1.75;0.88;;;;;;;26.72;25.99;95901.94;4920230;28;20032;-31
2022/04/21 06:59:27;;;;;;;2.05;0.98;;;;;;;26.72;25.99;95901.94;4923560;28;20114;-30
2022/04/21 07:01:53;;;;;;;2.58;1.10;;;;;;;26.72;25.99;95901.94;4921318;28;20795;-32
2022/04/21 07:04:20;;;;;;;3.40;0.85;;;;;;;26.72;25.99;95901.94;4921055;28;20028;-30
2022/04/21 07:06:45;;;;;;;1.48;0.90;;;;;;;26.72;25.99;95901.94;4927268;28;20031;-32
2022/04/21 07:09:10;;;;;;;4.22;1.58;;;;;;;26.72;25.99;95901.94;4926125;28;20039;-33
2022/04/21 07:11:38;;;;;;;6.18;1.50;;;;;;;26.72;25.99;95901.94;4925154;28;20035;-33
2022/04/21 07:14:03;;;;;;;6.93;1.63;;;;;;;26.80;25.80;95886.44;4922021;28;20035;-32
2022/04/21 07:16:29;;;;;;;5.57;1.50;;;;;;;26.83;26.10;95894.13;4920274;28;20582;-37
2022/04/21 07:18:55;;;;;;;3.38;1.58;;;;;;;26.83;26.10;95894.13;4923014;28;20069;-34
2022/04/21 07:21:20;;;;;;;1.58;1.13;;;;;;;26.83;26.10;95894.13;4924175;28;20576;-31
2022/04/21 07:23:45;;;;;;;4.78;1.90;;;;;;;26.87;26.09;95894.75;4920271;28;20807;-32
2022/04/21 07:26:11;;;;;;;2.85;1.20;;;;;;;26.87;26.09;95894.75;4922172;28;20039;-34
2022/04/21 07:28:36;;;;;;;2.63;1.20;;;;;;;26.87;26.09;95894.75;4922796;28;20098;-37
2022/04/21 07:31:02;;;;;;;5.28;1.00;;;;;;;26.87;26.09;95894.75;4923927;28;20039;-32
2022/04/21 07:33:27;;;;;;;7.70;1.45;;;;;;;26.87;26.09;95894.75;4926273;28;20067;-31
2022/04/21 07:35:52;;;;;;;8.50;1.48;;;;;;;26.87;26.09;95894.75;4923233;28;20020;-29
2022/04/21 07:38:18;;;;;;;6.10;1.83;;;;;;;26.92;25.94;95876.03;4921073;28;20031;-32
2022/04/21 07:40:43;;;;;;;6.47;1.70;;;;;;;26.92;25.94;95876.03;4923751;28;20941;-31
2022/04/21 07:43:09;;;;;;;10.25;2.08;;;;;;;26.92;25.94;95876.03;4924772;28;20031;-30
2022/04/21 07:45:37;;;;;;;20.33;2.83;;;;;;;26.94;26.17;95874.09;4921294;28;20039;-31
2022/04/21 07:48:03;;;;;;;19.17;2.35;;;;;;;26.93;26.29;95880.31;4923027;28;20023;-31
2022/04/21 07:50:28;;;;;;;11.48;2.00;;;;;;;26.93;26.29;95880.31;4923365;28;20596;-32
2022/04/21 07:55:38;;;;;;;12.80;1.58;;;;;;;26.93;26.15;95882.94;4923304;28;20078;-32
2022/04/21 07:58:03;;;;;;;7.53;1.60;;;;;;;26.93;26.15;95882.94;4924730;28;22176;-30
2022/04/21 08:00:29;;;;;;;6.13;1.20;;;;;;;26.92;26.26;95871.59;4922870;28;20063;-31
2022/04/21 08:02:54;;;;;;;7.60;1.35;;;;;;;26.92;26.38;95870.75;4922497;28;20035;-34
2022/04/21 08:05:20;;;;;;;12.80;1.67;;;;;;;26.92;26.50;95870.75;4922249;28;20059;-36
2022/04/21 08:07:46;;;;;;;3.42;1.52;;;;;;;26.92;26.50;95870.75;4924499;28;20054;-35
2022/04/21 08:10:12;;;;;;;7.57;1.60;;;;;;;26.93;26.63;95869.81;4927312;28;20114;-30
2022/04/21 08:12:47;;;;;;;7.22;1.50;;;;;;;26.92;26.49;95871.59;4921743;28;21285;-29
2022/04/21 08:15:15;;;;;;;4.63;1.50;;;;;;;26.93;26.40;95862.72;4925627;28;20027;-30
2022/04/21 08:17:40;;;;;;;7.60;1.40;;;;;;;26.93;26.40;95862.72;4919350;28;20043;-32
2022/04/21 08:20:07;;;;;;;5.55;1.13;;;;;;;26.93;26.40;95862.72;4925364;28;20031;-38
2022/04/21 08:22:32;;;;;;;8.05;1.50;;;;;;;26.93;26.40;95862.72;4921766;28;21933;-35
2022/04/21 08:33:10;;;;;;;3.22;1.10;;;;;;;26.96;26.62;95877.50;4927489;28;20049;-30
2022/04/21 08:35:35;;;;;;;5.95;1.52;;;;;;;26.96;26.62;95877.50;4924339;28;20023;-36
2022/04/21 08:38:01;;;;;;;6.03;1.63;;;;;;;26.96;26.62;95877.50;4922399;28;20054;-34
2022/04/21 08:40:28;;;;;;;6.38;1.30;;;;;;;26.97;26.86;95868.66;4921864;28;20098;-36
2022/04/21 08:42:54;;;;;;;8.27;2.53;;;;;;;26.97;26.86;95868.66;4924364;28;20032;-39
2022/04/21 08:45:20;;;;;;;6.00;1.85;;;;;;;26.96;25.93;95872.25;4922613;28;20049;-35
2022/04/21 08:47:46;;;;;;;9.88;2.00;;;;;;;26.93;25.88;95878.50;4931366;28;20058;-33
2022/04/21 08:50:13;;;;;;;5.70;3.72;;;;;;;26.90;25.28;95873.50;4922626;28;20786;-34
2022/04/21 08:52:41;;;;;;;8.68;4.65;;;;;;;26.84;24.87;95872.16;4924259;28;20118;-30
2022/04/21 08:55:08;;;;;;;9.93;5.38;;;;;;;26.77;23.63;95877.97;4920599;28;20023;-35
2022/04/21 08:57:35;;;;;;;6.53;4.32;;;;;;;26.67;23.57;95870.75;4925696;28;20516;-31
2022/04/21 09:00:01;;;;;;;13.05;4.70;;;;;;;26.58;23.56;95882.72;4926540;28;20136;-31
2022/04/21 09:02:53;;;;;;;5.40;3.80;;;;;;;26.52;23.63;95884.94;4920864;28;20106;-30
2022/04/21 09:05:20;;;;;;;21.92;3.38;;;;;;;26.48;23.74;95881.72;4924759;28;20047;-31
2022/04/21 09:07:54;;;;;;;9.82;3.00;;;;;;;26.45;23.86;95879.28;4935132;28;20118;-32
2022/04/21 09:10:20;;;;;;;9.15;2.97;;;;;;;26.44;23.91;95875.00;4922456;28;20031;-29
2022/04/21 09:12:45;;;;;;;11.13;2.60;;;;;;;26.44;24.01;95878.47;4922763;28;20041;-33
2022/04/21 09:15:20;;;;;;;4.85;3.08;;;;;;;26.45;24.01;95874.03;4919821;28;20052;-31
2022/04/21 09:17:56;;;;;;;7.22;3.03;;;;;;;26.46;24.02;95871.31;4922694;28;20035;-30
2022/04/21 09:20:36;;;;;;;4.00;2.50;;;;;;;26.46;24.02;95871.31;4920175;28;20031;-42
2022/04/21 09:23:12;;;;;;;6.88;2.53;;;;;;;26.48;24.21;95871.19;4922801;28;20166;-33
2022/04/21 09:25:48;;;;;;;9.25;2.40;;;;;;;26.50;24.29;95876.34;4934808;28;20949;-35
2022/04/21 09:28:20;;;;;;;4.68;2.13;;;;;;;26.51;24.37;95868.38;4920063;28;20087;-32
2022/04/21 09:30:46;;;;;;;5.57;2.75;;;;;;;26.53;24.37;95870.84;4917250;28;20019;-30
2022/04/21 09:33:11;;;;;;;12.82;4.63;;;;;;;26.55;24.00;95864.53;4937125;28;20544;-37
2022/04/21 09:35:37;;;;;;;7.03;4.55;;;;;;;26.55;23.44;95854.03;4922858;28;20043;-35
2022/04/21 09:38:03;;;;;;;11.15;4.65;;;;;;;26.55;23.37;95861.91;4918778;28;20027;-36
2022/04/21 09:40:29;;;;;;;5.97;3.60;;;;;;;26.56;23.30;95850.47;4919387;28;20035;-31
2022/04/21 09:42:58;;;;;;;8.90;3.63;;;;;;;26.57;23.00;95846.03;4922560;28;20118;-31
2022/04/21 09:48:31;;;;;;;10.05;3.72;;;;;;;26.58;22.95;95843.31;4931212;28;20702;-35
2022/04/21 09:51:32;;;;;;;8.73;4.00;;;;;;;26.59;22.75;95833.66;4915716;28;20043;-30
2022/04/21 09:54:02;;;;;;;8.50;3.83;;;;;;;26.59;22.67;95823.97;4919559;28;20043;-33
2022/04/21 09:56:39;;;;;;;10.50;3.17;;;;;;;26.59;22.64;95823.97;4921320;28;20055;-31
2022/04/21 09:59:09;;;;;;;4.90;2.92;;;;;;;26.60;22.75;95816.94;4919126;28;20038;-34
2022/04/21 10:01:41;;;;;;;14.95;3.50;;;;;;;26.60;22.84;95823.03;4927437;28;20043;-30
2022/04/21 10:04:11;;;;;;;9.27;3.05;;;;;;;26.63;23.10;95813.25;4927355;28;20040;-31
2022/04/21 10:06:40;;;;;;;13.15;3.38;;;;;;;26.64;23.24;95823.66;4930409;28;20359;-33
2022/04/21 10:09:06;;;;;;;20.95;3.95;;;;;;;26.67;23.43;95814.69;4926872;28;20101;-32
2022/04/21 10:11:31;;;;;;;22.23;3.88;;;;;;;26.68;23.50;95803.22;4931354;28;20035;-37
2022/04/21 10:13:57;;;;;;;16.88;3.92;;;;;;;26.70;23.56;95809.22;4929111;28;20225;-30
2022/04/21 10:16:23;;;;;;;12.65;3.60;;;;;;;26.71;23.64;95811.75;4944797;28;20043;-29
2022/04/21 10:18:51;;;;;;;13.13;3.85;;;;;;;26.73;23.66;95803.72;4929174;28;20070;-30
2022/04/21 10:21:39;;;;;;;15.48;3.80;;;;;;;26.74;23.70;95801.00;4945829;28;20074;-32
2022/04/21 10:24:05;;;;;;;12.93;3.40;;;;;;;26.77;24.01;95797.31;4939171;28;20513;-30
2022/04/21 10:26:34;;;;;;;12.52;3.70;;;;;;;26.78;23.87;95801.63;4930598;28;20032;-35
2022/04/21 10:29:01;;;;;;;13.15;3.97;;;;;;;26.80;23.85;95797.09;4931215;28;20125;-34
2022/04/21 10:31:30;;;;;;;13.05;3.90;;;;;;;26.82;23.91;95797.81;4924244;28;20035;-34
2022/04/21 10:34:00;;;;;;;12.13;3.70;;;;;;;26.82;23.97;95792.56;4924456;28;20043;-31
2022/04/21 10:36:41;;;;;;;12.27;3.35;;;;;;;26.84;24.03;95788.03;4921103;28;20028;-34
2022/04/21 10:39:12;;;;;;;11.73;3.63;;;;;;;26.86;24.08;95783.47;4921952;28;20023;-32
2022/04/21 10:41:41;;;;;;;13.10;3.60;;;;;;;26.87;24.03;95777.28;4922391;28;20027;-31
2022/04/21 10:44:13;;;;;;;13.23;3.67;;;;;;;26.88;24.10;95773.72;4924613;28;20046;-32
2022/04/21 10:46:38;;;;;;;12.80;3.35;;;;;;;26.89;23.96;95771.94;4925960;28;20031;-31
2022/04/21 10:49:04;;;;;;;13.10;3.53;;;;;;;26.92;24.16;95760.34;4922974;28;20043;-31
2022/04/21 10:51:41;;;;;;;8.93;3.10;;;;;;;26.93;24.14;95767.28;4923672;28;20034;-33
2022/04/21 11:00:05;;;;;;;8.40;2.80;;;;;;;26.96;24.24;95748.69;4923031;28;21025;-33
2022/04/21 11:02:45;;;;;;;12.38;3.47;;;;;;;26.97;24.31;95750.34;4922926;28;20127;-35
2022/04/21 11:05:30;;;;;;;9.07;3.20;;;;;;;26.98;24.43;95754.66;4925306;28;20055;-33
2022/04/21 11:07:56;;;;;;;9.65;3.10;;;;;;;27.00;24.38;95747.47;4924857;28;20031;-31
2022/04/21 11:10:42;;;;;;;13.27;2.80;;;;;;;27.00;24.46;95747.47;4920281;28;20509;-33
2022/04/21 11:13:09;;;;;;;10.27;2.90;;;;;;;27.02;24.54;95750.00;4923929;28;20453;-31
2022/04/21 11:15:36;;;;;;;8.68;2.78;;;;;;;27.02;24.37;95739.47;4925088;28;20027;-34
2022/04/21 11:18:11;;;;;;;6.47;2.83;;;;;;;27.03;24.59;95741.19;4925206;28;20113;-35
2022/04/21 11:20:37;;;;;;;6.25;2.80;;;;;;;27.04;24.48;95743.66;4921939;28;20094;-33
2022/04/21 11:23:03;;;;;;;8.82;2.70;;;;;;;27.05;24.51;95734.84;4923079;28;20210;-32
2022/04/21 11:25:35;;;;;;;8.35;3.30;;;;;;;27.05;24.51;95734.84;4923310;28;20034;-36
2022/04/21 11:28:00;;;;;;;7.75;2.97;;;;;;;27.05;24.51;95734.84;4922508;28;20027;-31
2022/04/21 11:30:26;;;;;;;8.88;3.00;;;;;;;27.05;24.51;95734.84;4918521;28;20027;-30
2022/04/21 11:32:52;;;;;;;8.02;2.95;;;;;;;27.09;24.65;95717.88;4918405;28;20696;-33
2022/04/21 11:35:18;;;;;;;5.85;2.80;;;;;;;27.10;24.42;95711.66;4923241;28;20106;-32
2022/04/21 11:37:54;;;;;;;9.48;2.85;;;;;;;27.10;24.42;95711.66;4925172;28;20103;-31
2022/04/21 11:40:33;;;;;;;6.00;2.60;;;;;;;27.10;24.42;95711.66;4921856;28;20031;-36
2022/04/21 11:43:02;;;;;;;6.47;2.53;;;;;;;27.10;24.42;95711.66;4922335;28;20094;-35
2022/04/21 11:45:29;;;;;;;5.32;2.33;;;;;;;27.10;24.42;95711.66;4924765;28;20417;-34
2022/04/21 11:47:54;;;;;;;8.02;2.63;;;;;;;27.10;24.42;95711.66;4925428;28;20039;-32
2022/04/21 11:50:27;;;;;;;5.10;2.25;;;;;;;27.10;24.42;95711.66;4923519;28;20030;-31
2022/04/21 11:52:53;;;;;;;5.80;2.28;;;;;;;27.10;24.42;95711.66;4930457;28;20930;-33
2022/04/21 11:55:30;;;;;;;6.57;2.60;;;;;;;27.10;24.42;95711.66;4930453;28;20031;-30
2022/04/21 11:57:56;;;;;;;6.07;2.40;;;;;;;27.10;24.42;95711.66;4929948;28;20031;-33
2022/04/21 12:08:37;;;;;;;4.65;2.17;;;;;;;27.20;24.88;95695.19;4926431;28;20062;-32
2022/04/21 12:11:02;;;;;;;8.35;2.17;;;;;;;27.20;24.88;95695.19;4924941;28;20031;-32
2022/04/21 12:13:28;;;;;;;5.95;2.00;;;;;;;27.20;24.88;95695.19;4926761;28;20090;-41
2022/04/21 12:15:53;;;;;;;4.07;2.00;;;;;;;27.20;24.88;95695.19;4924619;28;20039;-31
2022/04/21 12:18:19;;;;;;;4.88;2.15;;;;;;;27.20;24.88;95695.19;4923750;28;21021;-33
2022/04/21 12:20:54;;;;;;;5.35;2.10;;;;;;;27.20;24.88;95695.19;4926025;28;20035;-33
2022/04/21 12:23:27;;;;;;;4.50;2.35;;;;;;;27.20;24.88;95695.19;4928683;28;20031;-30
2022/04/21 12:25:52;;;;;;;3.95;2.20;;;;;;;27.20;24.88;95695.19;4925708;28;20735;-32
2022/04/21 12:28:18;;;;;;;6.20;2.38;;;;;;;27.20;24.88;95695.19;4928133;28;20124;-31